createdAt,value
2023-04-18T00:02:09.146Z,101619.66
2023-04-18T00:04:42.029Z,101619.16
2023-04-18T00:07:15.385Z,101620.45
2023-04-18T00:09:47.687Z,101618.64
2023-04-18T00:12:20.949Z,101617.14
2023-04-18T00:14:53.522Z,101616.48
2023-04-18T00:17:27.753Z,101617.34
2023-04-18T00:20:02.421Z,101615.91
2023-04-18T00:22:34.757Z,101620.85
2023-04-18T00:25:07.849Z,101617.67
2023-04-18T00:27:40.688Z,101614.61
2023-04-18T00:30:14.153Z,101618.29
2023-04-18T00:32:46.344Z,101615.92
2023-04-18T00:35:20.131Z,101614.59
2023-04-18T00:37:52.400Z,101611.50
2023-04-18T00:40:24.596Z,101616.63
2023-04-18T00:42:56.847Z,101618.08
2023-04-18T00:45:29.282Z,101614.45
2023-04-18T00:48:02.834Z,101607.33
2023-04-18T00:50:35.456Z,101608.98
2023-04-18T00:53:07.692Z,101608.06
2023-04-18T00:55:41.234Z,101606.27
2023-04-18T00:58:13.656Z,101606.23
2023-04-18T01:00:46.072Z,101608.00
2023-04-18T01:03:19.346Z,101604.30
2023-04-18T01:05:51.699Z,101602.47
2023-04-18T01:08:24.309Z,101608.10
2023-04-18T01:10:56.987Z,101599.29
2023-04-18T01:13:29.274Z,101598.70
2023-04-18T01:16:01.925Z,101597.70
2023-04-18T01:18:35.252Z,101598.21
2023-04-18T01:21:08.379Z,101600.76
2023-04-18T01:23:41.004Z,101600.76
2023-04-18T01:26:13.513Z,101599.60
2023-04-18T01:28:45.860Z,101604.39
2023-04-18T01:31:18.184Z,101604.02
2023-04-18T01:33:50.543Z,101607.11
2023-04-18T01:36:22.957Z,101604.88
2023-04-18T01:38:55.672Z,101603.67
2023-04-18T01:41:29.882Z,101605.83
2023-04-18T01:44:02.244Z,101605.66
2023-04-18T01:46:34.550Z,101606.02
2023-04-18T01:49:10.187Z,101604.59
2023-04-18T01:51:43.254Z,101602.31
2023-04-18T01:54:15.907Z,101607.16
2023-04-18T01:56:48.297Z,101605.48
2023-04-18T01:59:20.437Z,101606.16
2023-04-18T02:01:52.995Z,101605.13
2023-04-18T02:04:25.150Z,101604.68
2023-04-18T02:06:57.404Z,101590.96
2023-04-18T02:09:29.733Z,101605.54
2023-04-18T02:12:03.739Z,101601.42
2023-04-18T02:14:37.855Z,101599.64
2023-04-18T02:17:10.343Z,101600.99
2023-04-18T02:19:43.073Z,101589.40
2023-04-18T02:22:15.442Z,101601.85
2023-04-18T02:24:47.634Z,101602.87
2023-04-18T02:27:20.962Z,101599.17
2023-04-18T02:29:53.322Z,101597.29
2023-04-18T02:32:25.620Z,101594.53
2023-04-18T02:34:57.841Z,101598.45
2023-04-18T02:37:29.997Z,101596.48
2023-04-18T02:40:02.148Z,101597.15
2023-04-18T02:42:36.613Z,101584.20
2023-04-18T02:45:11.304Z,101597.75
2023-04-18T02:47:54.770Z,101596.09
2023-04-18T02:50:29.213Z,101593.32
2023-04-18T02:53:01.727Z,101594.58
2023-04-18T02:55:43.131Z,101592.89
2023-04-18T02:58:15.711Z,101596.20
2023-04-18T03:01:26.432Z,101598.08
2023-04-18T03:04:03.406Z,101588.52
2023-04-18T03:06:49.028Z,101600.66
2023-04-18T03:09:21.897Z,101600.63
2023-04-18T03:11:56.499Z,101602.20
2023-04-18T03:14:30.980Z,101598.73
2023-04-18T03:17:04.977Z,101600.98
2023-04-18T03:19:42.682Z,101603.06
2023-04-18T03:22:17.905Z,101600.75
2023-04-18T03:25:00.256Z,101595.52
2023-04-18T03:28:04.823Z,101599.77
2023-04-18T03:30:38.288Z,101599.71
2023-04-18T03:33:11.613Z,101603.88
2023-04-18T03:35:44.103Z,101602.98
2023-04-18T03:38:16.100Z,101603.08
2023-04-18T03:40:49.216Z,101601.61
2023-04-18T03:43:27.602Z,101604.07
2023-04-18T03:46:00.513Z,101602.09
2023-04-18T03:48:35.875Z,101605.73
2023-04-18T03:51:10.382Z,101608.23
2023-04-18T03:53:43.426Z,101604.66
2023-04-18T03:56:15.678Z,101599.22
2023-04-18T03:58:54.723Z,101600.50
2023-04-18T04:01:27.800Z,101603.77
2023-04-18T04:04:01.636Z,101593.10
2023-04-18T04:06:34.684Z,101606.98
2023-04-18T04:09:06.960Z,101604.33
2023-04-18T04:11:39.742Z,101610.38
2023-04-18T04:14:13.643Z,101606.29
2023-04-18T04:16:49.194Z,101608.06
2023-04-18T04:19:22.053Z,101605.16
2023-04-18T04:21:59.936Z,101610.98
2023-04-18T04:24:33.358Z,101614.63
2023-04-18T04:27:06.288Z,101602.39
2023-04-18T04:29:39.918Z,101617.58
2023-04-18T04:32:13.116Z,101617.05
2023-04-18T04:34:46.427Z,101617.80
2023-04-18T04:37:19.423Z,101615.90
2023-04-18T04:40:13.041Z,101615.64
2023-04-18T04:42:54.726Z,101617.08
2023-04-18T04:45:33.139Z,101616.44
2023-04-18T04:48:06.221Z,101622.21
2023-04-18T04:50:43.117Z,101620.98
2023-04-18T04:53:17.236Z,101620.59
2023-04-18T04:55:50.070Z,101622.55
2023-04-18T04:58:23.346Z,101625.92
2023-04-18T05:01:08.332Z,101623.78
2023-04-18T05:03:41.343Z,101629.80
2023-04-18T05:06:14.183Z,101627.88
2023-04-18T05:08:46.668Z,101629.58
2023-04-18T05:11:19.418Z,101633.27
2023-04-18T05:13:51.663Z,101631.67
2023-04-18T05:16:24.788Z,101632.79
2023-04-18T05:18:57.667Z,101635.74
2023-04-18T05:21:31.356Z,101638.11
2023-04-18T05:24:03.901Z,101639.34
2023-04-18T05:26:36.512Z,101636.71
2023-04-18T05:29:09.969Z,101616.72
2023-04-18T05:31:42.440Z,101636.48
2023-04-18T05:34:14.855Z,101637.73
2023-04-18T05:36:47.796Z,101639.87
2023-04-18T05:39:20.138Z,101643.73
2023-04-18T05:41:52.550Z,101641.16
2023-04-18T05:44:25.493Z,101638.59
2023-04-18T05:46:58.008Z,101639.52
2023-04-18T05:49:30.794Z,101640.76
2023-04-18T05:52:03.596Z,101638.09
2023-04-18T05:54:36.462Z,101639.31
2023-04-18T05:57:09.713Z,101638.60
2023-04-18T05:59:41.923Z,101635.23
2023-04-18T06:02:14.190Z,101638.21
2023-04-18T06:04:46.772Z,101641.86
2023-04-18T06:07:19.361Z,101631.80
2023-04-18T06:09:51.679Z,101639.46
2023-04-18T06:12:23.866Z,101638.85
2023-04-18T06:14:55.977Z,101637.74
2023-04-18T06:17:28.618Z,101640.71
2023-04-18T06:20:01.013Z,101648.14
2023-04-18T06:22:33.929Z,101646.35
2023-04-18T06:25:10.175Z,101649.60
2023-04-18T06:27:42.874Z,101650.02
2023-04-18T06:30:16.096Z,101647.08
2023-04-18T06:32:48.233Z,101650.48
2023-04-18T06:35:20.795Z,101654.06
2023-04-18T06:37:53.125Z,101651.48
2023-04-18T06:40:25.464Z,101655.71
2023-04-18T06:42:57.677Z,101655.11
2023-04-18T06:45:30.983Z,101655.70
2023-04-18T06:48:05.543Z,101656.41
2023-04-18T06:50:37.928Z,101662.42
2023-04-18T06:53:10.187Z,101651.31
2023-04-18T06:55:42.574Z,101661.73
2023-04-18T06:58:16.940Z,101662.92
2023-04-18T07:00:52.005Z,101662.71
2023-04-18T07:03:24.388Z,101666.07
2023-04-18T07:05:56.870Z,101668.33
2023-04-18T07:08:29.138Z,101646.86
2023-04-18T07:11:01.612Z,101667.83
2023-04-18T07:13:33.833Z,101668.49
2023-04-18T07:16:06.213Z,101658.67
2023-04-18T07:18:38.711Z,101672.30
2023-04-18T07:21:11.045Z,101677.29
2023-04-18T07:23:43.515Z,101678.83
2023-04-18T07:26:16.095Z,101676.86
2023-04-18T07:28:48.731Z,101682.49
2023-04-18T07:31:20.876Z,101684.52
2023-04-18T07:33:53.205Z,101685.22
2023-04-18T07:36:25.981Z,101685.02
2023-04-18T07:38:58.981Z,101688.87
2023-04-18T07:41:31.427Z,101683.85
2023-04-18T07:44:04.382Z,101685.52
2023-04-18T07:46:37.053Z,101685.92
2023-04-18T07:49:09.302Z,101688.13
2023-04-18T07:51:41.492Z,101691.23
2023-04-18T07:54:13.921Z,101689.83
2023-04-18T07:56:46.096Z,101692.90
2023-04-18T07:59:18.521Z,101694.22
2023-04-18T08:01:50.885Z,101695.80
2023-04-18T08:04:23.350Z,101682.99
2023-04-18T08:06:58.459Z,101698.10
2023-04-18T08:09:30.856Z,101692.52
2023-04-18T08:12:03.421Z,101691.61
2023-04-18T08:14:35.723Z,101697.12
2023-04-18T08:17:08.055Z,101693.02
2023-04-18T08:19:40.404Z,101696.64
2023-04-18T08:22:13.162Z,101695.92
2023-04-18T08:24:57.488Z,101699.58
2023-04-18T08:27:36.360Z,101701.14
2023-04-18T08:30:10.773Z,101701.94
2023-04-18T08:32:43.243Z,101705.69
2023-04-18T08:35:15.740Z,101698.38
2023-04-18T08:37:47.912Z,101699.79
2023-04-18T08:40:20.231Z,101701.09
2023-04-18T08:42:56.485Z,101707.02
2023-04-18T08:45:29.654Z,101708.54
2023-04-18T08:48:03.677Z,101706.83
2023-04-18T08:50:36.476Z,101705.10
2023-04-18T08:53:08.848Z,101708.61
2023-04-18T08:55:42.118Z,101709.56
2023-04-18T08:58:22.429Z,101710.41
2023-04-18T09:00:56.701Z,101710.16
2023-04-18T09:03:41.229Z,101709.91
2023-04-18T09:06:19.044Z,101711.20
2023-04-18T09:09:00.312Z,101709.98
2023-04-18T09:11:34.556Z,101709.59
2023-04-18T09:14:07.916Z,101705.61
2023-04-18T09:16:48.122Z,101710.08
2023-04-18T09:19:21.718Z,101697.17
2023-04-18T09:22:01.943Z,101706.09
2023-04-18T09:24:34.370Z,101704.58
2023-04-18T09:27:15.096Z,101703.57
2023-04-18T09:29:49.606Z,101700.05
2023-04-18T09:32:29.261Z,101702.10
2023-04-18T09:35:05.383Z,101701.63
2023-04-18T09:37:37.716Z,101702.64
2023-04-18T09:40:19.650Z,101702.87
2023-04-18T09:42:54.900Z,101706.92
2023-04-18T09:45:28.358Z,101704.05
2023-04-18T09:48:00.608Z,101701.81
2023-04-18T09:50:33.698Z,101701.76
2023-04-18T09:53:06.501Z,101702.55
2023-04-18T09:55:42.474Z,101699.15
2023-04-18T09:58:15.252Z,101696.52
2023-04-18T10:00:48.166Z,101694.10
2023-04-18T10:03:22.221Z,101695.06
2023-04-18T10:05:57.202Z,101700.02
2023-04-18T10:08:30.481Z,101698.68
2023-04-18T10:11:03.050Z,101697.96
2023-04-18T10:13:40.436Z,101696.16
2023-04-18T10:16:13.269Z,101701.02
2023-04-18T10:18:46.195Z,101698.52
2023-04-18T10:21:18.457Z,101696.59
2023-04-18T10:23:51.210Z,101696.14
2023-04-18T10:26:43.510Z,101696.65
2023-04-18T10:29:15.836Z,101693.13
2023-04-18T10:31:49.147Z,101676.84
2023-04-18T10:34:22.168Z,101692.67
2023-04-18T10:37:07.819Z,101691.11
2023-04-18T10:39:57.033Z,101688.09
2023-04-18T10:43:02.101Z,101687.52
2023-04-18T10:45:36.568Z,101689.29
2023-04-18T10:48:26.072Z,101689.77
2023-04-18T10:51:19.203Z,101687.11
2023-04-18T10:53:57.288Z,101682.70
2023-04-18T10:56:29.640Z,101684.77
2023-04-18T10:59:04.490Z,101681.80
2023-04-18T11:01:38.006Z,101681.20
2023-04-18T11:04:15.696Z,101682.40
2023-04-18T11:06:55.022Z,101678.70
2023-04-18T11:09:27.458Z,101679.57
2023-04-18T11:12:10.611Z,101683.75
2023-04-18T11:14:47.293Z,101680.22
2023-04-18T11:17:21.433Z,101681.73
2023-04-18T11:20:00.660Z,101682.20
2023-04-18T11:22:33.445Z,101680.89
2023-04-18T11:25:10.165Z,101678.55
2023-04-18T11:27:45.090Z,101684.91
2023-04-18T11:30:16.558Z,101685.40
2023-04-18T11:32:49.012Z,101679.16
2023-04-18T11:35:21.307Z,101677.63
2023-04-18T11:37:55.552Z,101680.06
2023-04-18T11:40:28.176Z,101674.08
2023-04-18T11:43:04.104Z,101677.83
2023-04-18T11:45:36.816Z,101679.36
2023-04-18T11:48:09.196Z,101676.83
2023-04-18T11:50:41.951Z,101671.89
2023-04-18T11:53:13.941Z,101667.84
2023-04-18T11:55:57.552Z,101669.32
2023-04-18T11:58:34.532Z,101671.50
2023-04-18T12:01:20.707Z,101672.56
2023-04-18T12:04:06.796Z,101671.63
2023-04-18T12:06:53.631Z,101671.14
2023-04-18T12:09:27.069Z,101664.59
2023-04-18T12:12:03.493Z,101666.50
2023-04-18T12:14:38.179Z,101669.92
2023-04-18T12:17:10.546Z,101670.34
2023-04-18T12:19:48.016Z,101669.02
2023-04-18T12:22:37.499Z,101668.88
2023-04-18T12:25:27.731Z,101666.20
2023-04-18T12:28:02.563Z,101662.28
2023-04-18T12:30:37.541Z,101665.34
2023-04-18T12:33:10.140Z,101659.25
2023-04-18T12:35:42.614Z,101656.30
2023-04-18T12:38:15.230Z,101653.50
2023-04-18T12:40:48.120Z,101652.86
2023-04-18T12:43:21.112Z,101652.16
2023-04-18T12:45:53.699Z,101650.77
2023-04-18T12:48:26.233Z,101648.98
2023-04-18T12:50:58.433Z,101646.77
2023-04-18T12:53:30.812Z,101646.53
2023-04-18T12:56:03.196Z,101644.02
2023-04-18T12:58:35.279Z,101641.25
2023-04-18T13:01:08.066Z,101636.69
2023-04-18T13:03:41.327Z,101636.33
2023-04-18T13:06:13.799Z,101634.80
2023-04-18T13:08:47.552Z,101640.28
2023-04-18T13:11:20.762Z,101631.95
2023-04-18T13:13:52.991Z,101627.79
2023-04-18T13:16:25.394Z,101630.83
2023-04-18T13:18:57.785Z,101628.89
2023-04-18T13:21:29.826Z,101630.11
2023-04-18T13:24:02.114Z,101625.45
2023-04-18T13:26:36.515Z,101620.03
2023-04-18T13:29:09.103Z,101621.36
2023-04-18T13:31:41.473Z,101621.20
2023-04-18T13:34:14.123Z,101620.52
2023-04-18T13:36:46.254Z,101622.67
2023-04-18T13:39:19.358Z,101621.61
2023-04-18T13:41:52.300Z,101620.66
2023-04-18T13:44:25.136Z,101619.56
2023-04-18T13:46:57.605Z,101621.63
2023-04-18T13:49:30.207Z,101619.23
2023-04-18T13:52:02.463Z,101618.71
2023-04-18T13:54:34.944Z,101619.17
2023-04-18T13:57:11.473Z,101617.56
2023-04-18T13:59:43.947Z,101617.01
2023-04-18T14:02:16.360Z,101615.59
2023-04-18T14:04:49.305Z,101611.84
2023-04-18T14:07:21.677Z,101612.23
2023-04-18T14:09:54.192Z,101610.89
2023-04-18T14:12:27.147Z,101611.52
2023-04-18T14:14:59.489Z,101610.16
2023-04-18T14:17:32.012Z,101609.33
2023-04-18T14:20:05.038Z,101613.67
2023-04-18T14:22:37.149Z,101614.54
2023-04-18T14:25:11.172Z,101612.49
2023-04-18T14:27:43.579Z,101612.85
2023-04-18T14:30:17.625Z,101613.12
2023-04-18T14:32:49.875Z,101612.89
2023-04-18T14:35:22.601Z,101612.41
2023-04-18T14:37:55.201Z,101598.40
2023-04-18T14:40:29.147Z,101611.71
2023-04-18T14:43:02.901Z,101611.52
2023-04-18T14:45:35.712Z,101613.27
2023-04-18T14:48:10.039Z,101610.41
2023-04-18T14:50:42.725Z,101601.27
2023-04-18T14:53:15.325Z,101611.60
2023-04-18T14:55:48.238Z,101613.84
2023-04-18T14:58:20.367Z,101611.29
2023-04-18T15:00:53.606Z,101611.30
2023-04-18T15:03:26.214Z,101610.14
2023-04-18T15:05:58.946Z,101610.63
2023-04-18T15:08:32.848Z,101608.56
2023-04-18T15:11:08.375Z,101606.63
2023-04-18T15:13:41.447Z,101609.09
2023-04-18T15:16:14.192Z,101605.95
2023-04-18T15:18:46.402Z,101603.90
2023-04-18T15:21:18.605Z,101599.94
2023-04-18T15:23:51.255Z,101602.18
2023-04-18T15:26:24.251Z,101604.94
2023-04-18T15:28:56.669Z,101603.16
2023-04-18T15:31:28.914Z,101603.30
2023-04-18T15:34:01.249Z,101597.83
2023-04-18T15:36:33.702Z,101595.39
2023-04-18T15:39:06.851Z,101592.55
2023-04-18T15:41:42.122Z,101592.41
2023-04-18T15:44:14.925Z,101594.89
2023-04-18T15:46:47.279Z,101594.42
2023-04-18T15:49:19.371Z,101592.33
2023-04-18T15:51:52.044Z,101593.58
2023-04-18T15:54:24.235Z,101595.80
2023-04-18T15:56:58.244Z,101590.29
2023-04-18T15:59:30.771Z,101591.45
2023-04-18T16:02:03.493Z,101593.24
2023-04-18T16:04:37.125Z,101593.90
2023-04-18T16:07:09.965Z,101595.70
2023-04-18T16:09:42.154Z,101594.13
2023-04-18T16:12:14.409Z,101591.41
2023-04-18T16:14:46.946Z,101589.71
2023-04-18T16:17:19.076Z,101591.88
2023-04-18T16:19:51.196Z,101591.16
2023-04-18T16:22:23.436Z,101592.27
2023-04-18T16:24:55.614Z,101590.71
2023-04-18T16:27:28.391Z,101593.10
2023-04-18T16:30:01.760Z,101592.52
2023-04-18T16:32:34.057Z,101584.85
2023-04-18T16:35:07.848Z,101587.67
2023-04-18T16:37:41.050Z,101585.48
2023-04-18T16:40:14.156Z,101587.52
2023-04-18T16:42:47.150Z,101586.52
2023-04-18T16:45:19.765Z,101587.90
2023-04-18T16:47:52.040Z,101583.46
2023-04-18T16:50:24.740Z,101581.05
2023-04-18T16:52:57.079Z,101586.20
2023-04-18T16:55:29.489Z,101586.61
2023-04-18T16:58:01.841Z,101583.17
2023-04-18T17:00:35.012Z,101582.05
2023-04-18T17:03:10.099Z,101585.69
2023-04-18T17:05:42.477Z,101586.91
2023-04-18T17:08:14.791Z,101592.16
2023-04-18T17:10:47.504Z,101588.21
2023-04-18T17:13:19.858Z,101588.16
2023-04-18T17:15:52.675Z,101584.98
2023-04-18T17:18:24.993Z,101587.09
2023-04-18T17:20:57.244Z,101588.73
2023-04-18T17:23:30.389Z,101591.95
2023-04-18T17:26:04.999Z,101580.09
2023-04-18T17:28:37.258Z,101591.73
2023-04-18T17:31:09.944Z,101587.39
2023-04-18T17:33:43.029Z,101584.63
2023-04-18T17:36:15.697Z,101587.42
2023-04-18T17:38:50.302Z,101587.33
2023-04-18T17:41:23.414Z,101584.27
2023-04-18T17:43:58.163Z,101587.52
2023-04-18T17:46:30.970Z,101590.27
2023-04-18T17:49:04.441Z,101584.81
2023-04-18T17:51:37.241Z,101588.38
2023-04-18T17:54:11.206Z,101585.77
2023-04-18T17:56:43.903Z,101593.45
2023-04-18T17:59:16.588Z,101585.83
2023-04-18T18:01:49.068Z,101592.59
2023-04-18T18:04:24.903Z,101596.13
2023-04-18T18:06:59.341Z,101599.68
2023-04-18T18:09:31.575Z,101599.86
2023-04-18T18:12:04.019Z,101601.04
2023-04-18T18:14:36.581Z,101601.08
2023-04-18T18:17:09.445Z,101599.65
2023-04-18T18:19:42.194Z,101602.91
2023-04-18T18:22:14.565Z,101606.30
2023-04-18T18:24:47.027Z,101607.16
2023-04-18T18:27:20.475Z,101608.63
2023-04-18T18:29:52.846Z,101612.11
2023-04-18T18:32:26.785Z,101610.95
2023-04-18T18:34:59.826Z,101616.59
2023-04-18T18:37:32.348Z,101613.74
2023-04-18T18:40:07.481Z,101614.85
2023-04-18T18:42:39.804Z,101616.09
2023-04-18T18:45:13.264Z,101618.52
2023-04-18T18:47:46.298Z,101618.58
2023-04-18T18:50:18.882Z,101618.85
2023-04-18T18:52:51.274Z,101618.11
2023-04-18T18:55:24.043Z,101623.19
2023-04-18T18:57:56.154Z,101622.21
2023-04-18T19:00:28.921Z,101619.88
2023-04-18T19:03:01.383Z,101617.56
2023-04-18T19:05:34.081Z,101615.86
2023-04-18T19:08:06.830Z,101613.92
2023-04-18T19:10:40.304Z,101614.89
2023-04-18T19:13:13.065Z,101613.94
2023-04-18T19:15:45.519Z,101613.40
2023-04-18T19:18:19.460Z,101611.94
2023-04-18T19:20:53.441Z,101616.30
2023-04-18T19:23:28.092Z,101616.39
2023-04-18T19:26:00.529Z,101615.84
2023-04-18T19:28:32.854Z,101611.01
2023-04-18T19:31:05.496Z,101611.88
2023-04-18T19:33:37.609Z,101610.73
2023-04-18T19:36:10.422Z,101609.34
2023-04-18T19:38:42.699Z,101598.80
2023-04-18T19:41:14.983Z,101608.56
2023-04-18T19:43:47.277Z,101608.97
2023-04-18T19:46:19.866Z,101612.84
2023-04-18T19:48:52.680Z,101612.55
2023-04-18T19:51:25.172Z,101607.92
2023-04-18T19:53:57.867Z,101594.73
2023-04-18T19:56:30.637Z,101592.64
2023-04-18T19:59:06.152Z,101606.89
2023-04-18T20:01:38.422Z,101605.12
2023-04-18T20:04:11.031Z,101601.84
2023-04-18T20:06:43.685Z,101606.67
2023-04-18T20:09:16.990Z,101610.35
2023-04-18T20:11:49.568Z,101608.11
2023-04-18T20:14:22.664Z,101610.55
2023-04-18T20:16:56.139Z,101608.29
2023-04-18T20:19:29.887Z,101608.62
2023-04-18T20:22:02.456Z,101612.39
2023-04-18T20:24:35.107Z,101610.04
2023-04-18T20:27:07.564Z,101611.23
2023-04-18T20:29:39.774Z,101610.05
2023-04-18T20:32:14.220Z,101611.40
2023-04-18T20:34:46.993Z,101611.17
2023-04-18T20:37:20.176Z,101612.09
2023-04-18T20:39:52.878Z,101609.33
2023-04-18T20:42:25.103Z,101612.46
2023-04-18T20:44:58.852Z,101611.53
2023-04-18T20:47:31.353Z,101613.19
2023-04-18T20:50:03.744Z,101606.83
2023-04-18T20:52:36.324Z,101606.48
2023-04-18T20:55:09.614Z,101597.27
2023-04-18T20:57:42.099Z,101605.73
2023-04-18T21:00:15.932Z,101603.27
2023-04-18T21:02:48.385Z,101609.58
2023-04-18T21:05:20.463Z,101608.52
2023-04-18T21:07:53.111Z,101604.17
2023-04-18T21:10:25.596Z,101602.75
2023-04-18T21:12:57.861Z,101600.19
2023-04-18T21:15:29.964Z,101603.45
2023-04-18T21:18:02.499Z,101597.88
2023-04-18T21:20:36.543Z,101592.51
2023-04-18T21:23:08.799Z,101585.38
2023-04-18T21:25:41.443Z,101587.34
2023-04-18T21:28:15.197Z,101585.33
2023-04-18T21:30:47.532Z,101572.38
2023-04-18T21:33:20.518Z,101579.33
2023-04-18T21:35:53.032Z,101580.91
2023-04-18T21:38:25.620Z,101578.07
2023-04-18T21:40:57.661Z,101575.99
2023-04-18T21:43:29.831Z,101577.17
2023-04-18T21:46:02.775Z,101577.54
2023-04-18T21:48:35.356Z,101580.27
2023-04-18T21:51:08.168Z,101576.06
2023-04-18T21:53:41.863Z,101580.60
2023-04-18T21:56:14.121Z,101582.28
2023-04-18T21:58:46.248Z,101579.13
2023-04-18T22:01:18.525Z,101579.40
2023-04-18T22:03:51.512Z,101571.83
2023-04-18T22:06:24.222Z,101573.79
2023-04-18T22:08:56.306Z,101564.30
2023-04-18T22:11:29.257Z,101566.10
2023-04-18T22:14:02.170Z,101563.66
2023-04-18T22:16:34.529Z,101560.55
2023-04-18T22:19:07.426Z,101558.40
2023-04-18T22:21:39.899Z,101540.39
2023-04-18T22:24:12.588Z,101551.13
2023-04-18T22:26:44.745Z,101549.48
2023-04-18T22:29:16.974Z,101554.87
2023-04-18T22:31:49.219Z,101545.20
2023-04-18T22:34:21.440Z,101540.24
2023-04-18T22:36:53.568Z,101544.77
2023-04-18T22:39:25.795Z,101542.77
2023-04-18T22:41:58.390Z,101544.39
2023-04-18T22:44:30.653Z,101542.54
2023-04-18T22:47:03.279Z,101533.88
2023-04-18T22:49:36.011Z,101533.39
2023-04-18T22:52:09.124Z,101528.92
2023-04-18T22:54:42.901Z,101524.67
2023-04-18T22:57:15.016Z,101522.27
2023-04-18T22:59:47.024Z,101521.56
2023-04-18T23:02:19.308Z,101513.95
2023-04-18T23:04:51.590Z,101513.19
2023-04-18T23:07:23.915Z,101509.92
2023-04-18T23:09:56.302Z,101504.72
2023-04-18T23:12:28.630Z,101509.94
2023-04-18T23:15:01.054Z,101505.70
2023-04-18T23:17:34.891Z,101503.26
2023-04-18T23:20:08.664Z,101502.52
2023-04-18T23:22:41.226Z,101499.28
2023-04-18T23:25:13.715Z,101496.59
2023-04-18T23:27:46.220Z,101499.02
2023-04-18T23:30:18.730Z,101482.33
2023-04-18T23:32:50.824Z,101495.42
2023-04-18T23:35:23.301Z,101491.95
2023-04-18T23:37:57.156Z,101490.11
2023-04-18T23:40:29.461Z,101489.00
2023-04-18T23:43:02.189Z,101488.13
2023-04-18T23:45:34.378Z,101487.57
2023-04-18T23:48:06.838Z,101470.23
2023-04-18T23:50:45.669Z,101480.08
2023-04-18T23:53:18.318Z,101475.36
2023-04-18T23:55:51.306Z,101474.10
2023-04-18T23:58:23.717Z,101480.44
